sensor_id;sensor_type;location;lat;lon;timestamp;pressure;altitude;pressure_sealevel;temperature;humidity
21401;BME280;18038;50.166;18.908;2022-12-18T00:00:23;99407.53;;;-7.41;76.97
21401;BME280;18038;50.166;18.908;2022-12-18T00:01:32;99408.13;;;-7.33;77.08
21401;BME280;18038;50.166;18.908;2022-12-18T00:02:37;99402.94;;;-7.33;76.86
21401;BME280;18038;50.166;18.908;2022-12-18T00:03:44;99420.28;;;-7.35;77.09
21401;BME280;18038;50.166;18.908;2022-12-18T00:04:49;99412.13;;;-7.23;77.03
21401;BME280;18038;50.166;18.908;2022-12-18T00:05:55;99419.06;;;-7.23;76.49
21401;BME280;18038;50.166;18.908;2022-12-18T00:06:58;99421.50;;;-7.19;76.36
21401;BME280;18038;50.166;18.908;2022-12-18T00:08:04;99428.31;;;-7.15;76.05
21401;BME280;18038;50.166;18.908;2022-12-18T00:09:11;99426.38;;;-7.08;76.01
21401;BME280;18038;50.166;18.908;2022-12-18T00:10:18;99423.56;;;-7.02;75.80
21401;BME280;18038;50.166;18.908;2022-12-18T00:11:26;99419.94;;;-6.98;75.83
21401;BME280;18038;50.166;18.908;2022-12-18T00:12:33;99424.97;;;-6.92;75.24
21401;BME280;18038;50.166;18.908;2022-12-18T00:13:37;99422.38;;;-6.92;75.50
21401;BME280;18038;50.166;18.908;2022-12-18T00:14:44;99433.38;;;-6.85;75.35
21401;BME280;18038;50.166;18.908;2022-12-18T00:15:50;99428.88;;;-6.80;75.22
21401;BME280;18038;50.166;18.908;2022-12-18T00:16:57;99430.50;;;-6.76;75.39
21401;BME280;18038;50.166;18.908;2022-12-18T00:18:04;99427.91;;;-6.76;74.79
21401;BME280;18038;50.166;18.908;2022-12-18T00:19:10;99426.19;;;-6.77;74.87
21401;BME280;18038;50.166;18.908;2022-12-18T00:20:18;99429.59;;;-6.75;74.68
21401;BME280;18038;50.166;18.908;2022-12-18T00:21:29;99440.09;;;-6.78;74.71
21401;BME280;18038;50.166;18.908;2022-12-18T00:22:35;99438.41;;;-6.79;74.95
21401;BME280;18038;50.166;18.908;2022-12-18T00:23:42;99430.69;;;-6.82;75.05
21401;BME280;18038;50.166;18.908;2022-12-18T00:24:48;99426.91;;;-6.98;75.18
21401;BME280;18038;50.166;18.908;2022-12-18T00:25:59;99433.72;;;-6.94;75.00
21401;BME280;18038;50.166;18.908;2022-12-18T00:27:05;99436.06;;;-6.86;74.87
21401;BME280;18038;50.166;18.908;2022-12-18T00:28:11;99442.00;;;-6.83;74.75
21401;BME280;18038;50.166;18.908;2022-12-18T00:29:14;99437.59;;;-6.81;74.71
21401;BME280;18038;50.166;18.908;2022-12-18T00:30:20;99441.28;;;-6.88;74.63
21401;BME280;18038;50.166;18.908;2022-12-18T00:31:25;99444.63;;;-6.84;74.74
21401;BME280;18038;50.166;18.908;2022-12-18T00:32:32;99439.78;;;-6.95;74.64
21401;BME280;18038;50.166;18.908;2022-12-18T00:33:37;99443.03;;;-6.89;74.66
21401;BME280;18038;50.166;18.908;2022-12-18T00:34:46;99431.81;;;-6.89;74.82
21401;BME280;18038;50.166;18.908;2022-12-18T00:35:51;99431.16;;;-6.96;74.35
21401;BME280;18038;50.166;18.908;2022-12-18T00:36:56;99443.19;;;-6.93;74.58
21401;BME280;18038;50.166;18.908;2022-12-18T00:38:02;99442.38;;;-6.95;74.55
21401;BME280;18038;50.166;18.908;2022-12-18T00:39:06;99446.84;;;-6.99;74.82
21401;BME280;18038;50.166;18.908;2022-12-18T00:40:12;99446.13;;;-7.04;74.64
21401;BME280;18038;50.166;18.908;2022-12-18T00:41:17;99450.63;;;-7.09;74.85
21401;BME280;18038;50.166;18.908;2022-12-18T00:42:39;99447.75;;;-7.26;74.49
21401;BME280;18038;50.166;18.908;2022-12-18T00:43:57;99450.72;;;-7.12;74.44
21401;BME280;18038;50.166;18.908;2022-12-18T00:45:04;99448.16;;;-7.14;74.50
21401;BME280;18038;50.166;18.908;2022-12-18T00:46:14;99459.97;;;-7.03;74.75
21401;BME280;18038;50.166;18.908;2022-12-18T00:47:18;99460.66;;;-6.98;74.61
21401;BME280;18038;50.166;18.908;2022-12-18T00:48:24;99468.47;;;-6.98;74.51
21401;BME280;18038;50.166;18.908;2022-12-18T00:49:28;99458.06;;;-6.98;74.49
21401;BME280;18038;50.166;18.908;2022-12-18T00:50:34;99463.13;;;-6.94;74.55
21401;BME280;18038;50.166;18.908;2022-12-18T00:51:37;99456.44;;;-7.01;74.71
21401;BME280;18038;50.166;18.908;2022-12-18T00:52:44;99458.78;;;-6.93;74.76
21401;BME280;18038;50.166;18.908;2022-12-18T00:53:48;99458.78;;;-6.93;74.58
21401;BME280;18038;50.166;18.908;2022-12-18T00:54:54;99463.94;;;-6.92;74.36
21401;BME280;18038;50.166;18.908;2022-12-18T00:55:57;99467.13;;;-6.83;74.56
21401;BME280;18038;50.166;18.908;2022-12-18T00:57:05;99464.69;;;-6.88;74.22
21401;BME280;18038;50.166;18.908;2022-12-18T00:58:13;99464.56;;;-6.85;74.43
21401;BME280;18038;50.166;18.908;2022-12-18T00:59:22;99470.19;;;-6.97;74.32
21401;BME280;18038;50.166;18.908;2022-12-18T01:00:25;99476.31;;;-7.00;75.04
21401;BME280;18038;50.166;18.908;2022-12-18T01:01:32;99473.56;;;-6.95;74.82
21401;BME280;18038;50.166;18.908;2022-12-18T01:02:39;99477.81;;;-6.93;74.91
21401;BME280;18038;50.166;18.908;2022-12-18T01:03:46;99485.34;;;-6.85;74.67
21401;BME280;18038;50.166;18.908;2022-12-18T01:04:51;99485.25;;;-6.82;74.44
21401;BME280;18038;50.166;18.908;2022-12-18T01:05:58;99492.16;;;-6.81;74.51
21401;BME280;18038;50.166;18.908;2022-12-18T01:07:02;99488.50;;;-6.75;74.89
21401;BME280;18038;50.166;18.908;2022-12-18T01:08:09;99487.66;;;-6.76;74.30
21401;BME280;18038;50.166;18.908;2022-12-18T01:09:12;99487.66;;;-6.76;74.32
21401;BME280;18038;50.166;18.908;2022-12-18T01:10:19;99490.28;;;-6.76;74.13
21401;BME280;18038;50.166;18.908;2022-12-18T01:11:24;99487.59;;;-6.74;74.43
21401;BME280;18038;50.166;18.908;2022-12-18T01:12:30;99489.06;;;-6.66;74.76
21401;BME280;18038;50.166;18.908;2022-12-18T01:13:36;99493.22;;;-6.60;74.27
21401;BME280;18038;50.166;18.908;2022-12-18T01:14:43;99491.34;;;-6.56;74.08
21401;BME280;18038;50.166;18.908;2022-12-18T01:15:48;99494.59;;;-6.50;74.10
21401;BME280;18038;50.166;18.908;2022-12-18T01:16:54;99473.28;;;-6.61;73.24
21401;BME280;18038;50.166;18.908;2022-12-18T01:17:57;99491.78;;;-6.44;73.63
21401;BME280;18038;50.166;18.908;2022-12-18T01:19:03;99493.03;;;-6.55;73.05
21401;BME280;18038;50.166;18.908;2022-12-18T01:20:09;99491.25;;;-6.53;73.36
21401;BME280;18038;50.166;18.908;2022-12-18T01:21:18;99482.63;;;-6.55;73.00
21401;BME280;18038;50.166;18.908;2022-12-18T01:22:21;99484.72;;;-6.65;72.82
21401;BME280;18038;50.166;18.908;2022-12-18T01:23:27;99476.91;;;-6.65;73.15
21401;BME280;18038;50.166;18.908;2022-12-18T01:24:31;99483.53;;;-6.56;72.80
21401;BME280;18038;50.166;18.908;2022-12-18T01:25:36;99483.50;;;-6.55;72.84
21401;BME280;18038;50.166;18.908;2022-12-18T01:26:45;99485.16;;;-6.52;72.96
21401;BME280;18038;50.166;18.908;2022-12-18T01:27:51;99485.94;;;-6.50;72.84
21401;BME280;18038;50.166;18.908;2022-12-18T01:28:57;99492.19;;;-6.56;72.60
21401;BME280;18038;50.166;18.908;2022-12-18T01:30:05;99481.09;;;-6.61;72.52
21401;BME280;18038;50.166;18.908;2022-12-18T01:31:14;99489.84;;;-6.63;72.64
21401;BME280;18038;50.166;18.908;2022-12-18T01:32:23;99487.25;;;-6.63;73.08
21401;BME280;18038;50.166;18.908;2022-12-18T01:33:26;99483.88;;;-6.66;72.93
21401;BME280;18038;50.166;18.908;2022-12-18T01:34:32;99492.38;;;-6.60;73.05
21401;BME280;18038;50.166;18.908;2022-12-18T01:35:41;99483.75;;;-6.62;73.18
21401;BME280;18038;50.166;18.908;2022-12-18T01:36:49;99491.44;;;-6.59;72.87
21401;BME280;18038;50.166;18.908;2022-12-18T01:37:55;99491.34;;;-6.56;72.71
21401;BME280;18038;50.166;18.908;2022-12-18T01:39:05;99489.56;;;-6.54;72.73
21401;BME280;18038;50.166;18.908;2022-12-18T01:40:10;99483.50;;;-6.55;72.83
21401;BME280;18038;50.166;18.908;2022-12-18T01:41:20;99499.72;;;-6.48;72.47
21401;BME280;18038;50.166;18.908;2022-12-18T01:42:25;99492.25;;;-6.57;72.82
21401;BME280;18038;50.166;18.908;2022-12-18T01:43:47;99495.84;;;-6.61;72.42
21401;BME280;18038;50.166;18.908;2022-12-18T01:44:59;99502.06;;;-6.66;72.41
21401;BME280;18038;50.166;18.908;2022-12-18T01:46:11;99505.38;;;-6.60;72.72
21401;BME280;18038;50.166;18.908;2022-12-18T01:47:19;99496.69;;;-6.61;72.59
21401;BME280;18038;50.166;18.908;2022-12-18T01:48:28;99504.84;;;-6.72;72.83
21401;BME280;18038;50.166;18.908;2022-12-18T01:49:33;99502.44;;;-6.78;73.06
21401;BME280;18038;50.166;18.908;2022-12-18T01:50:42;99513.09;;;-6.85;73.37
21401;BME280;18038;50.166;18.908;2022-12-18T01:51:48;99514.84;;;-6.86;73.52
21401;BME280;18038;50.166;18.908;2022-12-18T01:52:55;99515.72;;;-6.87;73.82
21401;BME280;18038;50.166;18.908;2022-12-18T01:54:05;99514.03;;;-6.88;73.86
21401;BME280;18038;50.166;18.908;2022-12-18T01:55:11;99517.47;;;-6.88;74.14
21401;BME280;18038;50.166;18.908;2022-12-18T01:56:20;99516.44;;;-6.82;74.11
21401;BME280;18038;50.166;18.908;2022-12-18T01:57:25;99518.25;;;-6.84;73.93
21401;BME280;18038;50.166;18.908;2022-12-18T01:58:39;99514.84;;;-6.86;74.13
21401;BME280;18038;50.166;18.908;2022-12-18T01:59:53;99500.41;;;-6.95;74.05
21401;BME280;18038;50.166;18.908;2022-12-18T02:01:15;99516.53;;;-6.85;74.08
21401;BME280;18038;50.166;18.908;2022-12-18T02:02:21;99523.47;;;-6.85;74.00
21401;BME280;18038;50.166;18.908;2022-12-18T02:03:27;99531.13;;;-6.81;73.80
21401;BME280;18038;50.166;18.908;2022-12-18T02:04:33;99530.22;;;-6.80;73.54
21401;BME280;18038;50.166;18.908;2022-12-18T02:05:44;99531.25;;;-6.84;73.72
21401;BME280;18038;50.166;18.908;2022-12-18T02:07:06;99531.72;;;-6.99;73.89
21401;BME280;18038;50.166;18.908;2022-12-18T02:08:23;99532.44;;;-6.94;73.75
21401;BME280;18038;50.166;18.908;2022-12-18T02:09:39;99537.31;;;-6.85;73.95
21401;BME280;18038;50.166;18.908;2022-12-18T02:11:02;99544.22;;;-6.84;73.43
21401;BME280;18038;50.166;18.908;2022-12-18T02:12:17;99536.50;;;-6.87;73.76
21401;BME280;18038;50.166;18.908;2022-12-18T02:13:35;99540.81;;;-6.86;73.59
21401;BME280;18038;50.166;18.908;2022-12-18T02:14:49;99537.44;;;-6.90;73.73
21401;BME280;18038;50.166;18.908;2022-12-18T02:16:17;99537.78;;;-7.00;74.16
21401;BME280;18038;50.166;18.908;2022-12-18T02:17:33;99539.44;;;-6.98;73.95
21401;BME280;18038;50.166;18.908;2022-12-18T02:18:48;99545.44;;;-6.96;74.12
21401;BME280;18038;50.166;18.908;2022-12-18T02:20:09;99537.72;;;-6.97;74.19
21401;BME280;18038;50.166;18.908;2022-12-18T02:21:32;99536.09;;;-7.01;74.40
21401;BME280;18038;50.166;18.908;2022-12-18T02:23:00;99541.19;;;-6.98;74.40
21401;BME280;18038;50.166;18.908;2022-12-18T02:24:21;99547.19;;;-6.96;74.38
21401;BME280;18038;50.166;18.908;2022-12-18T02:27:20;99547.34;;;-7.01;74.35
21401;BME280;18038;50.166;18.908;2022-12-18T02:28:30;99541.41;;;-7.04;74.10
21401;BME280;18038;50.166;18.908;2022-12-18T02:29:46;99538.94;;;-7.09;74.40
21401;BME280;18038;50.166;18.908;2022-12-18T02:31:04;99549.31;;;-7.09;74.71
21401;BME280;18038;50.166;18.908;2022-12-18T02:32:20;99549.38;;;-7.11;74.67
21401;BME280;18038;50.166;18.908;2022-12-18T02:33:30;99555.66;;;-7.18;74.40
21401;BME280;18038;50.166;18.908;2022-12-18T02:34:41;99549.50;;;-7.15;74.50
21401;BME280;18038;50.166;18.908;2022-12-18T02:35:52;99554.81;;;-7.18;74.64
21401;BME280;18038;50.166;18.908;2022-12-18T02:37:06;99547.72;;;-7.13;75.08
21401;BME280;18038;50.166;18.908;2022-12-18T02:38:15;99554.63;;;-7.12;74.57
21401;BME280;18038;50.166;18.908;2022-12-18T02:39:30;99552.84;;;-7.12;74.79
21401;BME280;18038;50.166;18.908;2022-12-18T02:40:40;99552.84;;;-7.12;74.75
21401;BME280;18038;50.166;18.908;2022-12-18T02:41:54;99546.63;;;-7.06;74.74
21401;BME280;18038;50.166;18.908;2022-12-18T02:43:03;99546.78;;;-7.11;74.59
21401;BME280;18038;50.166;18.908;2022-12-18T02:44:13;99551.19;;;-7.13;74.37
21401;BME280;18038;50.166;18.908;2022-12-18T02:45:19;99546.94;;;-7.17;74.94
21401;BME280;18038;50.166;18.908;2022-12-18T02:46:31;99556.41;;;-7.14;74.74
21401;BME280;18038;50.166;18.908;2022-12-18T02:47:47;99560.84;;;-7.18;74.92
21401;BME280;18038;50.166;18.908;2022-12-18T02:49:04;99567.81;;;-7.20;74.99
21401;BME280;18038;50.166;18.908;2022-12-18T02:50:28;99575.81;;;-7.26;75.02
21401;BME280;18038;50.166;18.908;2022-12-18T02:51:50;99579.28;;;-7.27;75.26
21401;BME280;18038;50.166;18.908;2022-12-18T02:53:10;99579.13;;;-7.21;75.06
21401;BME280;18038;50.166;18.908;2022-12-18T02:54:37;99559.44;;;-7.29;75.07
21401;BME280;18038;50.166;18.908;2022-12-18T02:56:03;99581.53;;;-7.15;75.26
21401;BME280;18038;50.166;18.908;2022-12-18T02:57:25;99579.66;;;-7.10;74.94
21401;BME280;18038;50.166;18.908;2022-12-18T02:58:47;99588.25;;;-7.07;75.06
21401;BME280;18038;50.166;18.908;2022-12-18T03:00:16;99596.75;;;-7.02;75.03
21401;BME280;18038;50.166;18.908;2022-12-18T03:01:31;99586.53;;;-7.08;74.76
21401;BME280;18038;50.166;18.908;2022-12-18T03:02:51;99587.53;;;-7.13;74.87
21401;BME280;18038;50.166;18.908;2022-12-18T03:04:06;99590.22;;;-7.16;75.29
21401;BME280;18038;50.166;18.908;2022-12-18T03:05:21;99589.31;;;-7.15;75.38
21401;BME280;18038;50.166;18.908;2022-12-18T03:06:32;99591.72;;;-7.08;75.23
21401;BME280;18038;50.166;18.908;2022-12-18T03:07:51;99598.56;;;-7.06;75.20
21401;BME280;18038;50.166;18.908;2022-12-18T03:09:09;99594.28;;;-7.07;75.02
21401;BME280;18038;50.166;18.908;2022-12-18T03:10:25;99600.50;;;-7.13;75.21
21401;BME280;18038;50.166;18.908;2022-12-18T03:11:35;99602.28;;;-7.15;75.22
21401;BME280;18038;50.166;18.908;2022-12-18T03:13:12;99593.03;;;-7.23;75.45
21401;BME280;18038;50.166;18.908;2022-12-18T03:14:26;99604.28;;;-7.23;75.96
21401;BME280;18038;50.166;18.908;2022-12-18T03:15:38;99599.88;;;-7.21;75.82
21401;BME280;18038;50.166;18.908;2022-12-18T03:16:53;99598.88;;;-7.17;75.76
21401;BME280;18038;50.166;18.908;2022-12-18T03:18:06;99594.63;;;-7.19;75.60
21401;BME280;18038;50.166;18.908;2022-12-18T03:19:20;99605.00;;;-7.18;75.86
21401;BME280;18038;50.166;18.908;2022-12-18T03:20:31;99598.97;;;-7.20;75.80
21401;BME280;18038;50.166;18.908;2022-12-18T03:21:43;99592.84;;;-7.17;75.59
21401;BME280;18038;50.166;18.908;2022-12-18T03:22:56;99604.06;;;-7.15;75.64
21401;BME280;18038;50.166;18.908;2022-12-18T03:24:10;99598.78;;;-7.14;75.88
21401;BME280;18038;50.166;18.908;2022-12-18T03:25:17;99601.25;;;-7.09;75.62
21401;BME280;18038;50.166;18.908;2022-12-18T03:26:30;99602.00;;;-7.05;75.25
21401;BME280;18038;50.166;18.908;2022-12-18T03:27:42;99598.63;;;-7.07;74.93
21401;BME280;18038;50.166;18.908;2022-12-18T03:28:59;99604.78;;;-7.10;75.50
21401;BME280;18038;50.166;18.908;2022-12-18T03:30:13;99597.72;;;-7.06;75.52
21401;BME280;18038;50.166;18.908;2022-12-18T03:31:22;99605.31;;;-7.00;75.45
21401;BME280;18038;50.166;18.908;2022-12-18T03:32:39;99608.69;;;-6.97;75.10
21401;BME280;18038;50.166;18.908;2022-12-18T03:33:52;99604.56;;;-7.04;75.15
21401;BME280;18038;50.166;18.908;2022-12-18T03:35:10;99604.66;;;-7.07;74.86
21401;BME280;18038;50.166;18.908;2022-12-18T03:36:17;99603.75;;;-7.06;75.44
21401;BME280;18038;50.166;18.908;2022-12-18T03:37:25;99613.09;;;-6.99;75.20
21401;BME280;18038;50.166;18.908;2022-12-18T03:38:29;99607.75;;;-6.94;75.04
21401;BME280;18038;50.166;18.908;2022-12-18T03:39:37;99611.84;;;-6.87;75.25
21401;BME280;18038;50.166;18.908;2022-12-18T03:40:50;99615.16;;;-6.82;74.94
21401;BME280;18038;50.166;18.908;2022-12-18T03:42:17;99622.97;;;-6.82;74.27
21401;BME280;18038;50.166;18.908;2022-12-18T03:43:49;99610.97;;;-6.86;74.18
21401;BME280;18038;50.166;18.908;2022-12-18T03:45:07;99627.09;;;-6.75;74.69
21401;BME280;18038;50.166;18.908;2022-12-18T03:46:20;99618.38;;;-6.74;74.38
21401;BME280;18038;50.166;18.908;2022-12-18T03:47:39;99616.75;;;-6.76;74.43
21401;BME280;18038;50.166;18.908;2022-12-18T03:49:04;99613.28;;;-6.77;74.34
21401;BME280;18038;50.166;18.908;2022-12-18T03:50:21;99611.50;;;-6.75;74.18
21401;BME280;18038;50.166;18.908;2022-12-18T03:51:39;99612.22;;;-6.71;74.02
21401;BME280;18038;50.166;18.908;2022-12-18T03:52:58;99618.44;;;-6.75;73.98
21401;BME280;18038;50.166;18.908;2022-12-18T03:54:12;99619.19;;;-6.72;74.22
21401;BME280;18038;50.166;18.908;2022-12-18T03:55:32;99619.25;;;-6.73;73.91
21401;BME280;18038;50.166;18.908;2022-12-18T03:56:46;99630.44;;;-6.71;73.78
21401;BME280;18038;50.166;18.908;2022-12-18T03:57:58;99628.59;;;-6.68;74.20
21401;BME280;18038;50.166;18.908;2022-12-18T03:59:17;99637.38;;;-6.72;73.49
21401;BME280;18038;50.166;18.908;2022-12-18T04:00:29;99627.88;;;-6.73;73.88
21401;BME280;18038;50.166;18.908;2022-12-18T04:01:45;99634.78;;;-6.72;73.92
21401;BME280;18038;50.166;18.908;2022-12-18T04:02:57;99636.44;;;-6.69;73.65
21401;BME280;18038;50.166;18.908;2022-12-18T04:04:14;99637.34;;;-6.70;73.40
21401;BME280;18038;50.166;18.908;2022-12-18T04:05:25;99625.72;;;-6.86;73.61
21401;BME280;18038;50.166;18.908;2022-12-18T04:06:32;99632.63;;;-6.87;74.38
21401;BME280;18038;50.166;18.908;2022-12-18T04:07:41;99628.97;;;-6.80;74.49
21401;BME280;18038;50.166;18.908;2022-12-18T04:08:47;99634.03;;;-6.75;74.04
21401;BME280;18038;50.166;18.908;2022-12-18T04:09:59;99634.97;;;-6.78;73.94
21401;BME280;18038;50.166;18.908;2022-12-18T04:11:09;99639.25;;;-6.77;73.67
21401;BME280;18038;50.166;18.908;2022-12-18T04:12:13;99644.56;;;-6.80;73.83
21401;BME280;18038;50.166;18.908;2022-12-18T04:13:24;99644.66;;;-6.83;74.32
21401;BME280;18038;50.166;18.908;2022-12-18T04:14:33;99647.34;;;-6.86;74.21
21401;BME280;18038;50.166;18.908;2022-12-18T04:15:45;99650.66;;;-6.81;74.30
21401;BME280;18038;50.166;18.908;2022-12-18T04:16:51;99643.03;;;-6.87;74.21
21401;BME280;18038;50.166;18.908;2022-12-18T04:18:03;99644.84;;;-6.89;74.45
21401;BME280;18038;50.166;18.908;2022-12-18T04:19:16;99649.31;;;-6.94;74.55
21401;BME280;18038;50.166;18.908;2022-12-18T04:20:25;99650.28;;;-6.98;74.91
21401;BME280;18038;50.166;18.908;2022-12-18T04:21:28;99639.16;;;-7.02;75.03
21401;BME280;18038;50.166;18.908;2022-12-18T04:22:36;99645.28;;;-7.04;75.11
21401;BME280;18038;50.166;18.908;2022-12-18T04:23:39;99644.47;;;-7.06;74.96
21401;BME280;18038;50.166;18.908;2022-12-18T04:24:45;99653.13;;;-7.06;74.91
21401;BME280;18038;50.166;18.908;2022-12-18T04:25:57;99650.59;;;-7.07;74.72
21401;BME280;18038;50.166;18.908;2022-12-18T04:27:22;99649.78;;;-7.11;74.85
21401;BME280;18038;50.166;18.908;2022-12-18T04:28:27;99650.72;;;-7.14;75.11
21401;BME280;18038;50.166;18.908;2022-12-18T04:29:33;99654.25;;;-7.15;75.26
21401;BME280;18038;50.166;18.908;2022-12-18T04:30:37;99654.13;;;-7.10;75.70
21401;BME280;18038;50.166;18.908;2022-12-18T04:31:46;99659.97;;;-7.03;75.45
21401;BME280;18038;50.166;18.908;2022-12-18T04:32:50;99659.00;;;-6.99;75.28
21401;BME280;18038;50.166;18.908;2022-12-18T04:33:58;99652.91;;;-6.98;74.79
21401;BME280;18038;50.166;18.908;2022-12-18T04:35:01;99660.69;;;-6.98;74.80
21401;BME280;18038;50.166;18.908;2022-12-18T04:36:09;99664.91;;;-6.94;75.03
21401;BME280;18038;50.166;18.908;2022-12-18T04:37:15;99668.22;;;-6.89;74.81
21401;BME280;18038;50.166;18.908;2022-12-18T04:38:24;99664.94;;;-6.96;74.64
21401;BME280;18038;50.166;18.908;2022-12-18T04:39:38;99666.88;;;-7.02;74.95
21401;BME280;18038;50.166;18.908;2022-12-18T04:40:48;99668.69;;;-7.06;74.97
21401;BME280;18038;50.166;18.908;2022-12-18T04:42:00;99673.91;;;-7.06;74.94
21401;BME280;18038;50.166;18.908;2022-12-18T04:43:04;99677.19;;;-6.99;74.95
21401;BME280;18038;50.166;18.908;2022-12-18T04:44:10;99679.72;;;-6.98;74.93
21401;BME280;18038;50.166;18.908;2022-12-18T04:45:14;99676.19;;;-6.95;74.93
21401;BME280;18038;50.166;18.908;2022-12-18T04:46:20;99667.53;;;-6.96;75.04
21401;BME280;18038;50.166;18.908;2022-12-18T04:47:26;99683.72;;;-6.86;74.97
21401;BME280;18038;50.166;18.908;2022-12-18T04:48:33;99670.66;;;-6.84;74.87
21401;BME280;18038;50.166;18.908;2022-12-18T04:49:37;99677.59;;;-6.83;74.32
21401;BME280;18038;50.166;18.908;2022-12-18T04:50:43;99677.91;;;-6.94;74.29
21401;BME280;18038;50.166;18.908;2022-12-18T04:51:47;99686.75;;;-7.01;74.79
21401;BME280;18038;50.166;18.908;2022-12-18T04:52:54;99684.34;;;-7.07;74.82
21401;BME280;18038;50.166;18.908;2022-12-18T04:53:58;99687.88;;;-7.10;75.08
21401;BME280;18038;50.166;18.908;2022-12-18T04:55:05;99689.69;;;-7.14;75.37
21401;BME280;18038;50.166;18.908;2022-12-18T04:56:11;99694.13;;;-7.17;75.36
21401;BME280;18038;50.166;18.908;2022-12-18T04:57:18;99695.81;;;-7.16;75.69
21401;BME280;18038;50.166;18.908;2022-12-18T04:58:22;99699.19;;;-7.13;75.72
21401;BME280;18038;50.166;18.908;2022-12-18T04:59:28;99701.81;;;-7.14;75.27
21401;BME280;18038;50.166;18.908;2022-12-18T05:00:31;99699.28;;;-7.16;75.20
21401;BME280;18038;50.166;18.908;2022-12-18T05:01:39;99703.41;;;-7.08;75.53
21401;BME280;18038;50.166;18.908;2022-12-18T05:02:45;99701.59;;;-7.05;75.33
21401;BME280;18038;50.166;18.908;2022-12-18T05:03:51;99704.13;;;-7.03;75.15
21401;BME280;18038;50.166;18.908;2022-12-18T05:04:55;99706.00;;;-7.08;75.13
21401;BME280;18038;50.166;18.908;2022-12-18T05:06:01;99701.72;;;-7.10;75.27
21401;BME280;18038;50.166;18.908;2022-12-18T05:07:06;99703.38;;;-7.07;75.21
21401;BME280;18038;50.166;18.908;2022-12-18T05:08:12;99710.13;;;-7.01;75.21
21401;BME280;18038;50.166;18.908;2022-12-18T05:09:15;99710.00;;;-6.97;75.14
21401;BME280;18038;50.166;18.908;2022-12-18T05:10:21;99702.03;;;-6.91;74.92
21401;BME280;18038;50.166;18.908;2022-12-18T05:11:26;99703.78;;;-6.91;74.85
21401;BME280;18038;50.166;18.908;2022-12-18T05:12:33;99707.00;;;-6.83;74.78
21401;BME280;18038;50.166;18.908;2022-12-18T05:13:57;99709.44;;;-6.77;74.37
21401;BME280;18038;50.166;18.908;2022-12-18T05:15:05;99707.75;;;-6.79;73.71
21401;BME280;18038;50.166;18.908;2022-12-18T05:16:09;99715.50;;;-6.76;74.09
21401;BME280;18038;50.166;18.908;2022-12-18T05:17:16;99711.94;;;-6.74;73.93
21401;BME280;18038;50.166;18.908;2022-12-18T05:18:23;99712.84;;;-6.75;73.99
21401;BME280;18038;50.166;18.908;2022-12-18T05:19:30;99713.06;;;-6.82;73.88
21401;BME280;18038;50.166;18.908;2022-12-18T05:20:33;99720.91;;;-6.84;74.32
21401;BME280;18038;50.166;18.908;2022-12-18T05:21:39;99714.00;;;-6.85;73.99
21401;BME280;18038;50.166;18.908;2022-12-18T05:22:42;99711.41;;;-6.85;74.15
21401;BME280;18038;50.166;18.908;2022-12-18T05:23:49;99710.59;;;-6.87;74.07
21401;BME280;18038;50.166;18.908;2022-12-18T05:24:53;99713.19;;;-6.87;74.08
21401;BME280;18038;50.166;18.908;2022-12-18T05:26:01;99710.56;;;-6.85;74.27
21401;BME280;18038;50.166;18.908;2022-12-18T05:27:06;99718.38;;;-6.87;74.34
21401;BME280;18038;50.166;18.908;2022-12-18T05:28:12;99714.91;;;-6.86;74.58
21401;BME280;18038;50.166;18.908;2022-12-18T05:29:16;99712.19;;;-6.81;74.28
21401;BME280;18038;50.166;18.908;2022-12-18T05:30:22;99712.22;;;-6.83;73.92
21401;BME280;18038;50.166;18.908;2022-12-18T05:31:26;99719.31;;;-6.90;74.25
21401;BME280;18038;50.166;18.908;2022-12-18T05:32:41;99718.38;;;-6.87;74.29
21401;BME280;18038;50.166;18.908;2022-12-18T05:33:48;99718.25;;;-6.82;74.34
21401;BME280;18038;50.166;18.908;2022-12-18T05:34:55;99726.97;;;-6.83;73.82
21401;BME280;18038;50.166;18.908;2022-12-18T05:36:01;99719.16;;;-6.83;74.01
21401;BME280;18038;50.166;18.908;2022-12-18T05:37:09;99728.53;;;-6.78;74.04
21401;BME280;18038;50.166;18.908;2022-12-18T05:38:12;99724.03;;;-6.73;74.08
21401;BME280;18038;50.166;18.908;2022-12-18T05:39:18;99717.81;;;-6.67;73.78
21401;BME280;18038;50.166;18.908;2022-12-18T05:40:22;99726.38;;;-6.63;73.43
21401;BME280;18038;50.166;18.908;2022-12-18T05:41:29;99727.19;;;-6.61;72.87
21401;BME280;18038;50.166;18.908;2022-12-18T05:42:32;99721.97;;;-6.61;73.03
21401;BME280;18038;50.166;18.908;2022-12-18T05:43:40;99727.19;;;-6.61;73.24
21401;BME280;18038;50.166;18.908;2022-12-18T05:44:44;99729.34;;;-6.76;72.66
21401;BME280;18038;50.166;18.908;2022-12-18T05:45:52;99720.91;;;-6.84;73.24
21401;BME280;18038;50.166;18.908;2022-12-18T05:46:56;99736.50;;;-6.84;73.26
21401;BME280;18038;50.166;18.908;2022-12-18T05:48:02;99732.25;;;-6.86;73.47
21401;BME280;18038;50.166;18.908;2022-12-18T05:49:08;99726.53;;;-6.99;73.51
21401;BME280;18038;50.166;18.908;2022-12-18T05:50:14;99730.00;;;-7.00;74.08
21401;BME280;18038;50.166;18.908;2022-12-18T05:51:21;99730.72;;;-6.94;74.05
21401;BME280;18038;50.166;18.908;2022-12-18T05:52:27;99736.56;;;-6.87;74.14
21401;BME280;18038;50.166;18.908;2022-12-18T05:53:31;99739.00;;;-6.81;73.90
21401;BME280;18038;50.166;18.908;2022-12-18T05:54:37;99733.72;;;-6.78;73.99
21401;BME280;18038;50.166;18.908;2022-12-18T05:55:43;99733.81;;;-6.81;73.46
21401;BME280;18038;50.166;18.908;2022-12-18T05:56:51;99735.00;;;-6.93;73.72
21401;BME280;18038;50.166;18.908;2022-12-18T05:57:54;99735.06;;;-6.94;74.28
21401;BME280;18038;50.166;18.908;2022-12-18T05:59:00;99735.81;;;-6.91;74.14
21401;BME280;18038;50.166;18.908;2022-12-18T06:00:05;99728.13;;;-6.95;74.03
21401;BME280;18038;50.166;18.908;2022-12-18T06:01:15;99741.84;;;-6.90;74.03
21401;BME280;18038;50.166;18.908;2022-12-18T06:02:22;99732.31;;;-6.90;74.06
21401;BME280;18038;50.166;18.908;2022-12-18T06:03:28;99740.97;;;-6.89;73.91
21401;BME280;18038;50.166;18.908;2022-12-18T06:04:38;99743.56;;;-6.89;73.63
21401;BME280;18038;50.166;18.908;2022-12-18T06:05:45;99741.75;;;-6.87;74.07